• Join FlightAware (Why Join?)
  • Login
  • US Flag 
01:01PM EDT


 

Airport Tracker/Info


-or-


 

Live Flight TrackerFlight Track Log ✈ CTL18 ✈ 25-Apr-2013 ✈ KPTK - KMBS

Flight Track Log - Related Links

Times and Time Zones

All times are in EDT time to prevent confusion due to time zone crossing. See the CTL18 flight status page for this flight to view local times or setup timezone preferences in your user account.

Time Position Orientation Groundspeed Altitude Reporting Facility
EDT Latitude Longitude Course Direction KTS MPH feet Rate Location/Type
07:01PM 42.6622 -83.4464 291° West 116 133 1,500  Level Cleveland Center
07:02PM 42.6717 -83.4806 291° West 120 138 2,300 960 Climbing Cleveland Center
07:04PM 42.7064 -83.4353 44° Northeast  Level FlightAware Approximate
07:11PM 42.9440 -83.4150 321° Northwest  Level FlightAware Approximate
07:12PM 42.9714 -83.4452 321° Northwest  Level FlightAware Approximate
07:13PM 42.9988 -83.4753 321° Northwest  Level FlightAware Approximate
07:14PM 43.0262 -83.5055 321° Northwest  Level FlightAware Approximate
07:15PM 43.0535 -83.5358 321° Northwest  Level FlightAware Approximate
07:16PM 43.0809 -83.5660 321° Northwest  Level FlightAware Approximate
07:17PM 43.1083 -83.5963 321° Northwest  Level FlightAware Approximate
07:18PM 43.1356 -83.6266 321° Northwest  Level FlightAware Approximate
07:19PM 43.1630 -83.6570 321° Northwest  Level FlightAware Approximate
07:20PM 43.1903 -83.6873 321° Northwest  Level FlightAware Approximate
07:21PM 43.2176 -83.7178 318° Northwest  Level FlightAware Approximate
07:22PM 43.2439 -83.7498 318° Northwest  Level FlightAware Approximate
07:23PM 43.2702 -83.7819 318° Northwest  Level FlightAware Approximate
07:24PM 43.2965 -83.8141 318° Northwest  Level FlightAware Approximate
07:25PM 43.3228 -83.8462 318° Northwest  Level FlightAware Approximate
07:26PM 43.3490 -83.8784 318° Northwest  Level FlightAware Approximate
07:27PM 43.3760 -83.9093 324° Northwest  Level FlightAware Approximate
07:28PM 43.4045 -83.9378 324° Northwest  Level FlightAware Approximate
07:29PM 43.4330 -83.9662 324° Northwest  Level FlightAware Approximate
07:30PM 43.4614 -83.9947 324° Northwest  Level FlightAware Approximate
07:31PM 43.4899 -84.0232 324° Northwest  Level FlightAware Approximate
07:32PM 43.5129 -84.0591 305° West  Level FlightAware Approximate
07:33PM 43.5167 -84.0667 305° West  Level FlightAware Approximate
07:34PM 43.5329 -84.0796 305° West  Level Estimated